Gotse Delchev, Bulgaria
Current Conditions -  °F | °C
As of 7:20 PM on Thursday 23 Oct 2014 (Local Time) from LGKV Reporting Station
Scattered Clouds Scattered Clouds  
Wind Chill: 59°   Ceiling: Unl
Heat Index: 59°   Visibility: 6mi
Dew Point: 50°   Wind: 8mph
Humidity: 72%   Direction: 280°W
Pressure: 29.56"   Gusts: NA
Location:  41.57°N, 23.74°E
Report Text: LGKV 231620Z 28007KT 9999 FEW035 SCT080 15/10 Q1001
Loading
Personal Weather Stations






























Interactive Weather Map
Tropical Storm Tracking
New forecast layout! Learn more

10-Day Weather Forecast

Advertisements
Track Severe Weather on mobile